createdAt,value
2019-01-11T00:02:26.903Z,4.30
2019-01-11T00:04:56.511Z,3.70
2019-01-11T00:07:26.035Z,3.60
2019-01-11T00:09:56.258Z,3.50
2019-01-11T00:12:26.141Z,3.50
2019-01-11T00:14:55.872Z,3.65
2019-01-11T00:17:25.387Z,3.80
2019-01-11T00:19:55.125Z,3.65
2019-01-11T00:22:25.081Z,4.45
2019-01-11T00:24:54.959Z,4.03
2019-01-11T00:27:24.794Z,4.40
2019-01-11T00:29:54.412Z,4.50
2019-01-11T00:32:24.032Z,4.90
2019-01-11T00:34:53.672Z,4.65
2019-01-11T00:37:23.212Z,4.03
2019-01-11T00:39:52.846Z,4.87
2019-01-11T00:42:22.417Z,4.55
2019-01-11T00:44:52.049Z,4.70
2019-01-11T00:47:21.700Z,4.62
2019-01-11T00:49:51.315Z,4.97
2019-01-11T00:52:20.896Z,4.97
2019-01-11T00:54:50.453Z,4.40
2019-01-11T00:57:20.047Z,4.50
2019-01-11T00:59:49.584Z,4.45
2019-01-11T01:02:19.103Z,4.95
2019-01-11T01:04:48.703Z,4.60
2019-01-11T01:07:18.555Z,4.95
2019-01-11T01:09:48.222Z,5.30
2019-01-11T01:12:17.788Z,4.85
2019-01-11T01:14:47.524Z,5.40
2019-01-11T01:17:17.158Z,4.15
2019-01-11T01:19:46.768Z,4.58
2019-01-11T01:22:16.348Z,4.25
2019-01-11T01:24:46.051Z,4.60
2019-01-11T01:27:15.559Z,4.90
2019-01-11T01:29:45.208Z,4.35
2019-01-11T01:32:14.705Z,4.20
2019-01-11T01:34:44.265Z,3.40
2019-01-11T01:37:13.902Z,4.45
2019-01-11T01:39:43.408Z,3.50
2019-01-11T01:42:13.108Z,3.80
2019-01-11T01:44:42.642Z,3.60
2019-01-11T01:47:12.283Z,3.75
2019-01-11T01:49:41.806Z,3.08
2019-01-11T01:52:11.531Z,3.80
2019-01-11T01:54:41.079Z,2.75
2019-01-11T01:57:10.720Z,3.47
2019-01-11T01:59:40.218Z,3.33
2019-01-11T02:02:09.910Z,3.77
2019-01-11T02:04:39.413Z,3.45
2019-01-11T02:07:09.123Z,3.87
2019-01-11T02:09:38.604Z,3.12
2019-01-11T02:12:08.192Z,3.17
2019-01-11T02:14:37.800Z,3.45
2019-01-11T02:17:07.327Z,3.42
2019-01-11T02:19:37.067Z,3.33
2019-01-11T02:22:07.107Z,3.12
2019-01-11T02:24:36.830Z,3.12
2019-01-11T02:27:06.382Z,3.27
2019-01-11T02:29:36.308Z,3.45
2019-01-11T02:32:05.802Z,3.40
2019-01-11T02:34:35.458Z,3.80
2019-01-11T02:37:05.019Z,3.30
2019-01-11T02:39:35.075Z,4.00
2019-01-11T02:42:04.637Z,3.00
2019-01-11T02:44:34.332Z,3.70
2019-01-11T02:47:03.851Z,3.52
2019-01-11T02:49:39.741Z,2.90
2019-01-11T02:52:04.742Z,3.83
2019-01-11T02:54:34.262Z,3.92
2019-01-11T02:57:03.986Z,4.30
2019-01-11T02:59:33.524Z,4.00
2019-01-11T03:02:03.378Z,4.17
2019-01-11T03:04:32.892Z,4.70
2019-01-11T03:07:02.556Z,3.75
2019-01-11T03:09:32.667Z,4.45
2019-01-11T03:12:02.218Z,3.80
2019-01-11T03:14:32.491Z,3.95
2019-01-11T03:17:02.006Z,3.85
2019-01-11T03:19:31.739Z,4.03
2019-01-11T03:22:01.320Z,4.10
2019-01-11T03:24:31.036Z,4.22
2019-01-11T03:27:00.567Z,5.33
2019-01-11T03:29:30.309Z,5.45
2019-01-11T03:31:59.844Z,3.98
2019-01-11T03:34:29.529Z,5.65
2019-01-11T03:36:59.024Z,5.50
2019-01-11T03:39:28.634Z,4.87
2019-01-11T03:42:06.856Z,4.70
2019-01-11T03:44:36.376Z,4.83
2019-01-11T03:47:06.095Z,4.35
2019-01-11T03:49:35.643Z,4.85
2019-01-11T03:52:05.560Z,4.75
2019-01-11T03:54:35.094Z,4.87
2019-01-11T03:57:05.457Z,4.87
2019-01-11T03:59:34.994Z,4.87
2019-01-11T04:02:04.674Z,4.62
2019-01-11T04:04:34.178Z,5.10
2019-01-11T04:07:03.847Z,5.17
2019-01-11T04:09:33.354Z,5.35
2019-01-11T04:12:03.243Z,4.85
2019-01-11T04:14:32.823Z,5.37
2019-01-11T04:17:02.349Z,5.05
2019-01-11T04:19:32.084Z,5.97
2019-01-11T04:22:18.565Z,6.10
2019-01-11T04:25:25.390Z,5.03
2019-01-11T04:27:55.058Z,5.87
2019-01-11T04:30:24.659Z,5.28
2019-01-11T04:32:54.159Z,5.50
2019-01-11T04:35:23.942Z,5.67
2019-01-11T04:37:53.445Z,6.60
2019-01-11T04:40:23.126Z,5.58
2019-01-11T04:42:52.630Z,6.55
2019-01-11T04:45:22.178Z,6.35
2019-01-11T04:47:51.776Z,6.42
2019-01-11T04:50:23.356Z,5.92
2019-01-11T04:52:52.973Z,6.05
2019-01-11T04:55:22.577Z,6.95
2019-01-11T04:57:52.199Z,6.28
2019-01-11T05:00:23.225Z,5.85
2019-01-11T05:02:53.163Z,7.60
2019-01-11T05:05:22.831Z,6.45
2019-01-11T05:07:53.084Z,6.92
2019-01-11T05:10:22.724Z,7.53
2019-01-11T05:12:52.379Z,6.85
2019-01-11T05:15:22.027Z,6.42
2019-01-11T05:17:51.640Z,7.22
2019-01-11T05:20:21.233Z,7.20
2019-01-11T05:22:50.896Z,6.35
2019-01-11T05:25:20.544Z,9.25
2019-01-11T05:27:50.127Z,8.15
2019-01-11T05:30:26.859Z,7.72
2019-01-11T05:32:56.546Z,6.78
2019-01-11T05:35:26.662Z,8.20
2019-01-11T05:37:56.306Z,7.58
2019-01-11T05:40:27.902Z,8.35
2019-01-11T05:42:57.696Z,7.28
2019-01-11T05:45:27.302Z,8.00
2019-01-11T05:47:56.903Z,6.70
2019-01-11T05:50:27.936Z,8.23
2019-01-11T05:52:59.256Z,7.97
2019-01-11T05:55:52.311Z,7.85
2019-01-11T05:58:39.371Z,7.28
2019-01-11T06:01:17.674Z,7.20
2019-01-11T06:03:50.005Z,6.55
2019-01-11T06:06:19.540Z,6.47
2019-01-11T06:08:49.201Z,6.67
2019-01-11T06:11:18.984Z,6.70
2019-01-11T06:13:48.490Z,7.28
2019-01-11T06:16:18.199Z,7.12
2019-01-11T06:18:48.716Z,7.22
2019-01-11T06:21:18.375Z,6.90
2019-01-11T06:23:49.087Z,7.00
2019-01-11T06:26:18.772Z,7.15
2019-01-11T06:28:48.386Z,6.30
2019-01-11T06:31:19.123Z,7.53
2019-01-11T06:33:48.964Z,8.28
2019-01-11T06:36:18.496Z,7.97
2019-01-11T06:38:48.167Z,8.08
2019-01-11T06:41:17.824Z,8.70
2019-01-11T06:43:49.084Z,8.10
2019-01-11T06:46:20.273Z,8.50
2019-01-11T06:48:50.066Z,8.78
2019-01-11T06:51:19.637Z,8.60
2019-01-11T06:53:49.263Z,8.55
2019-01-11T06:56:18.906Z,7.90
2019-01-11T06:58:48.744Z,9.30
2019-01-11T07:01:18.440Z,9.45
2019-01-11T07:03:49.664Z,8.10
2019-01-11T07:06:20.290Z,9.25
2019-01-11T07:08:49.973Z,7.47
2019-01-11T07:11:19.603Z,8.30
2019-01-11T07:13:49.139Z,8.60
2019-01-11T07:16:18.869Z,8.65
2019-01-11T07:18:48.435Z,8.50
2019-01-11T07:21:18.336Z,8.10
2019-01-11T07:23:48.057Z,9.33
2019-01-11T07:26:17.660Z,7.80
2019-01-11T07:28:48.857Z,8.20
2019-01-11T07:31:25.680Z,9.23
2019-01-11T07:33:55.239Z,7.70
2019-01-11T07:36:35.842Z,7.75
2019-01-11T07:39:22.016Z,8.80
2019-01-11T07:41:51.961Z,7.78
2019-01-11T07:44:21.638Z,8.05
2019-01-11T07:46:51.307Z,6.92
2019-01-11T07:49:23.315Z,7.60
2019-01-11T07:51:52.148Z,7.55
2019-01-11T07:54:21.763Z,9.35
2019-01-11T07:56:53.046Z,8.05
2019-01-11T07:59:23.144Z,8.20
2019-01-11T08:01:52.702Z,6.83
2019-01-11T08:04:22.363Z,7.30
2019-01-11T08:06:52.004Z,7.53
2019-01-11T08:09:21.618Z,6.80
2019-01-11T08:11:51.362Z,6.65
2019-01-11T08:14:21.057Z,6.62
2019-01-11T08:16:50.847Z,6.90
2019-01-11T08:19:20.515Z,7.22
2019-01-11T08:21:50.191Z,6.40
2019-01-11T08:24:19.895Z,6.97
2019-01-11T08:26:49.467Z,7.37
2019-01-11T08:29:20.098Z,5.97
2019-01-11T08:31:49.676Z,6.03
2019-01-11T08:34:19.539Z,5.47
2019-01-11T08:36:49.101Z,5.95
2019-01-11T08:39:18.741Z,5.25
2019-01-11T08:41:48.376Z,5.78
2019-01-11T08:44:17.985Z,5.95
2019-01-11T08:46:48.366Z,6.20
2019-01-11T08:49:18.437Z,6.28
2019-01-11T08:51:48.020Z,6.22
2019-01-11T08:54:17.661Z,5.72
2019-01-11T08:56:48.255Z,6.50
2019-01-11T08:59:17.889Z,6.25
2019-01-11T09:01:47.516Z,6.17
2019-01-11T09:04:18.076Z,5.58
2019-01-11T09:06:47.736Z,6.30
2019-01-11T09:09:17.302Z,5.50
2019-01-11T09:11:46.918Z,5.55
2019-01-11T09:14:46.836Z,5.00
2019-01-11T09:17:17.921Z,4.60
2019-01-11T09:19:47.590Z,5.33
2019-01-11T09:22:19.899Z,5.58
2019-01-11T09:24:52.384Z,4.87
2019-01-11T09:27:22.016Z,4.40
2019-01-11T09:29:52.886Z,6.03
2019-01-11T09:32:22.635Z,5.80
2019-01-11T09:34:52.268Z,5.15
2019-01-11T09:37:21.799Z,5.25
2019-01-11T09:39:51.477Z,5.47
2019-01-11T09:42:22.092Z,5.72
2019-01-11T09:44:51.704Z,5.23
2019-01-11T09:47:21.265Z,5.00
2019-01-11T09:49:58.677Z,5.87
2019-01-11T09:52:28.219Z,5.63
2019-01-11T09:55:03.276Z,5.80
2019-01-11T09:57:38.627Z,6.40
2019-01-11T10:00:11.958Z,4.80
2019-01-11T10:02:49.415Z,5.37
2019-01-11T10:05:19.050Z,6.77
2019-01-11T10:07:48.988Z,6.90
2019-01-11T10:10:18.866Z,7.43
2019-01-11T10:12:49.419Z,6.47
2019-01-11T10:15:19.120Z,6.50
2019-01-11T10:17:52.056Z,6.27
2019-01-11T10:20:21.731Z,6.40
2019-01-11T10:22:51.813Z,6.40
2019-01-11T10:25:22.297Z,6.00
2019-01-11T10:27:56.312Z,6.93
2019-01-11T10:30:28.340Z,6.83
2019-01-11T10:32:58.115Z,7.50
2019-01-11T10:35:27.833Z,7.30
2019-01-11T10:37:57.367Z,7.07
2019-01-11T10:40:27.233Z,6.50
2019-01-11T10:42:56.768Z,6.90
2019-01-11T10:45:26.421Z,7.80
2019-01-11T10:47:56.000Z,8.60
2019-01-11T10:50:25.685Z,7.63
2019-01-11T10:52:55.227Z,8.73
2019-01-11T10:55:24.852Z,8.50
2019-01-11T10:58:02.426Z,11.03
2019-01-11T11:00:32.086Z,8.37
2019-01-11T11:03:02.112Z,8.43
2019-01-11T11:05:31.781Z,9.90
2019-01-11T11:08:02.254Z,9.63
2019-01-11T11:10:32.991Z,9.17
2019-01-11T11:13:02.630Z,9.50
2019-01-11T11:15:32.202Z,7.30
2019-01-11T11:18:04.886Z,7.90
2019-01-11T11:20:36.955Z,8.40
2019-01-11T11:23:13.059Z,9.80
2019-01-11T11:25:42.698Z,8.27
2019-01-11T11:28:12.813Z,9.03
2019-01-11T11:30:51.018Z,8.90
2019-01-11T11:33:26.105Z,7.97
2019-01-11T11:35:55.716Z,8.73
2019-01-11T11:38:31.462Z,8.67
2019-01-11T11:41:08.190Z,10.57
2019-01-11T11:43:38.142Z,9.40
2019-01-11T11:46:08.022Z,9.07
2019-01-11T11:48:37.701Z,8.53
2019-01-11T11:51:09.340Z,8.97
2019-01-11T11:53:38.968Z,8.60
2019-01-11T11:56:08.633Z,8.67
2019-01-11T11:58:38.295Z,7.80
2019-01-11T12:01:08.309Z,9.00
2019-01-11T12:03:37.965Z,7.67
2019-01-11T12:06:07.590Z,8.80
2019-01-11T12:08:37.251Z,9.07
2019-01-11T12:11:06.959Z,10.00
2019-01-11T12:13:36.537Z,9.00
2019-01-11T12:16:06.219Z,9.90
2019-01-11T12:18:35.837Z,9.40
2019-01-11T12:21:05.696Z,9.13
2019-01-11T12:23:35.257Z,10.27
2019-01-11T12:26:05.243Z,8.70
2019-01-11T12:28:34.896Z,8.10
2019-01-11T12:31:04.571Z,9.37
2019-01-11T12:33:34.181Z,8.90
2019-01-11T12:36:03.907Z,8.28
2019-01-11T12:38:33.496Z,8.63
2019-01-11T12:41:03.171Z,7.80
2019-01-11T12:43:32.868Z,8.85
2019-01-11T12:46:02.577Z,9.45
2019-01-11T12:48:32.168Z,9.85
2019-01-11T12:51:01.787Z,9.80
2019-01-11T12:53:32.447Z,10.32
2019-01-11T12:56:02.072Z,10.80
2019-01-11T12:58:31.746Z,10.53
2019-01-11T13:01:02.311Z,11.43
2019-01-11T14:46:29.227Z,8.40
2019-01-11T14:48:58.707Z,9.43
2019-01-11T14:51:28.215Z,9.60
2019-01-11T14:53:58.103Z,10.40
2019-01-11T14:56:27.707Z,10.23
2019-01-11T14:58:58.011Z,10.53
2019-01-11T15:01:27.563Z,10.20
2019-01-11T15:03:57.495Z,11.10
2019-01-11T15:06:27.397Z,11.18
2019-01-11T15:08:57.577Z,10.10
2019-01-11T15:11:27.406Z,10.93
2019-01-11T15:13:57.260Z,10.58
2019-01-11T15:16:27.433Z,10.48
2019-01-11T15:18:57.296Z,12.65
2019-01-11T15:21:27.125Z,11.90
2019-01-11T15:24:02.195Z,10.45
2019-01-11T15:26:31.766Z,11.95
2019-01-11T15:29:01.311Z,11.57
2019-01-11T15:31:31.519Z,12.20
2019-01-11T15:34:01.023Z,12.20
2019-01-11T15:36:30.576Z,11.20
2019-01-11T15:39:01.424Z,12.80
2019-01-11T15:41:31.336Z,12.53
2019-01-11T15:44:00.871Z,12.82
2019-01-11T15:46:30.525Z,12.30
2019-01-11T15:49:00.048Z,13.80
2019-01-11T15:51:31.240Z,13.08
2019-01-11T15:54:01.760Z,12.63
2019-01-11T15:56:37.539Z,14.35
2019-01-11T15:59:07.128Z,13.75
2019-01-11T16:01:37.967Z,14.33
2019-01-11T16:04:09.094Z,13.80
2019-01-11T16:06:40.557Z,14.75
2019-01-11T16:10:01.860Z,18.23
2019-01-11T16:13:21.360Z,16.65
2019-01-11T16:16:46.726Z,17.07
2019-01-11T16:19:16.579Z,29.95
2019-01-11T16:21:46.161Z,20.23
2019-01-11T16:24:15.698Z,16.95
2019-01-11T16:26:45.346Z,16.45
2019-01-11T16:29:15.337Z,16.62
2019-01-11T16:31:45.199Z,16.97
2019-01-11T16:34:15.012Z,16.85
2019-01-11T16:36:44.623Z,17.62
2019-01-11T16:39:14.544Z,16.93
2019-01-11T16:41:44.131Z,15.83
2019-01-11T16:44:13.699Z,15.90
2019-01-11T16:46:43.590Z,15.93
2019-01-11T16:49:13.436Z,17.82
2019-01-11T16:51:43.318Z,16.60
2019-01-11T16:54:13.140Z,15.93
2019-01-11T16:56:42.710Z,16.97
2019-01-11T16:59:12.545Z,16.42
2019-01-11T17:01:42.079Z,15.90
2019-01-11T17:04:11.960Z,15.70
2019-01-11T17:06:41.556Z,15.63
2019-01-11T17:09:11.230Z,14.98
2019-01-11T17:11:40.749Z,15.68
2019-01-11T17:14:11.035Z,15.53
2019-01-11T17:16:40.876Z,15.05
2019-01-11T17:19:10.871Z,15.50
2019-01-11T17:21:40.400Z,15.68
2019-01-11T17:24:09.972Z,14.53
2019-01-11T17:26:39.787Z,17.30
2019-01-11T17:29:10.035Z,15.88
2019-01-11T17:31:40.136Z,14.83
2019-01-11T17:34:09.931Z,14.90
2019-01-11T17:36:39.525Z,14.83
2019-01-11T17:39:10.098Z,16.37
2019-01-11T17:41:39.665Z,15.63
2019-01-11T17:44:09.190Z,14.90
2019-01-11T17:46:39.099Z,15.25
2019-01-11T17:49:08.951Z,15.05
2019-01-11T17:51:38.557Z,14.85
2019-01-11T17:54:08.095Z,24.12
2019-01-11T17:56:37.991Z,15.55
2019-01-11T17:59:07.792Z,12.33
2019-01-11T18:01:37.666Z,14.07
2019-01-11T18:04:07.477Z,12.95
2019-01-11T18:06:37.682Z,11.55
2019-01-11T18:09:08.616Z,11.73
2019-01-11T18:11:38.500Z,10.65
2019-01-11T18:14:08.041Z,26.68
2019-01-11T18:16:37.875Z,12.65
2019-01-11T18:19:08.813Z,10.90
2019-01-11T18:21:39.325Z,10.68
2019-01-11T18:24:09.198Z,11.20
2019-01-11T18:26:39.350Z,10.78
2019-01-11T18:29:10.308Z,11.05
2019-01-11T18:31:39.834Z,9.13
2019-01-11T18:34:09.389Z,10.68
2019-01-11T18:36:38.987Z,9.63
2019-01-11T18:39:11.367Z,9.90
2019-01-11T18:41:41.494Z,10.20
2019-01-11T18:44:11.103Z,9.98
2019-01-11T18:46:40.710Z,12.30
2019-01-11T18:49:10.372Z,9.93
2019-01-11T18:51:40.392Z,14.40
2019-01-11T18:54:10.509Z,10.60
2019-01-11T18:56:40.494Z,9.55
2019-01-11T18:59:10.041Z,9.80
2019-01-11T19:01:39.651Z,8.85
2019-01-11T19:04:09.489Z,10.55
2019-01-11T19:06:39.513Z,8.85
2019-01-11T19:09:09.725Z,8.93
2019-01-11T19:11:39.299Z,8.70
2019-01-11T19:14:08.878Z,10.48
2019-01-11T19:16:38.435Z,8.75
2019-01-11T19:19:08.303Z,8.88
2019-01-11T19:21:38.559Z,8.95
2019-01-11T19:24:08.078Z,8.13
2019-01-11T19:26:38.077Z,9.98
2019-01-11T19:29:07.655Z,8.43
2019-01-11T19:31:38.587Z,9.10
2019-01-11T19:34:08.566Z,8.30
2019-01-11T19:36:38.082Z,8.30
2019-01-11T19:39:08.716Z,9.53
2019-01-11T19:41:38.251Z,8.90
2019-01-11T19:44:07.950Z,9.15
2019-01-11T19:46:37.754Z,8.68
2019-01-11T19:49:07.802Z,9.13
2019-01-11T19:51:37.349Z,8.05
2019-01-11T19:54:07.109Z,8.80
2019-01-11T19:56:36.666Z,9.05
2019-01-11T19:59:06.362Z,8.23
2019-01-11T20:01:36.053Z,9.08
2019-01-11T20:04:05.847Z,8.18
2019-01-11T20:06:35.763Z,9.80
2019-01-11T20:09:07.878Z,8.43
2019-01-11T20:11:37.781Z,9.00
2019-01-11T20:14:07.295Z,9.18
2019-01-11T20:16:37.233Z,9.10
2019-01-11T20:19:07.623Z,8.28
2019-01-11T20:21:37.763Z,9.08
2019-01-11T20:24:07.556Z,9.35
2019-01-11T20:26:37.144Z,10.38
2019-01-11T20:29:07.214Z,9.98
2019-01-11T20:31:37.095Z,10.40
2019-01-11T20:34:06.612Z,9.73
2019-01-11T20:36:43.951Z,9.50
2019-01-11T20:39:13.875Z,9.08
2019-01-11T20:41:43.434Z,9.75
2019-01-11T20:44:13.277Z,10.00
2019-01-11T20:46:43.447Z,11.35
2019-01-11T20:49:12.994Z,10.32
2019-01-11T20:51:42.806Z,9.78
2019-01-11T20:54:13.010Z,10.53
2019-01-11T20:56:43.100Z,11.63
2019-01-11T20:59:13.032Z,11.15
2019-01-11T21:01:42.699Z,11.40
2019-01-11T21:04:12.944Z,11.50
2019-01-11T21:06:42.630Z,12.35
2019-01-11T21:09:12.228Z,11.55
2019-01-11T21:11:42.461Z,11.20
2019-01-11T21:14:12.416Z,10.65
2019-01-11T21:16:42.533Z,11.35
2019-01-11T21:19:12.110Z,11.40
2019-01-11T21:21:41.598Z,12.18
2019-01-11T21:24:11.831Z,11.05
2019-01-11T21:26:41.349Z,11.65
2019-01-11T21:29:11.238Z,11.03
2019-01-11T21:31:41.065Z,11.68
2019-01-11T21:34:10.921Z,11.10
2019-01-11T21:36:41.105Z,11.63
2019-01-11T21:39:10.917Z,12.30
2019-01-11T21:41:40.491Z,12.20
2019-01-11T21:44:10.018Z,11.80
2019-01-11T21:46:39.944Z,11.43
2019-01-11T21:49:09.442Z,13.20
2019-01-11T21:51:39.107Z,12.40
2019-01-11T21:54:09.231Z,11.45
2019-01-11T21:56:39.113Z,12.33
2019-01-11T21:59:08.660Z,11.65
2019-01-11T22:01:38.551Z,11.75
2019-01-11T22:04:08.352Z,12.07
2019-01-11T22:06:37.934Z,11.75
2019-01-11T22:09:08.993Z,12.58
2019-01-11T22:11:38.923Z,11.48
2019-01-11T22:14:09.145Z,12.50
2019-01-11T22:16:38.920Z,11.75
2019-01-11T22:19:08.496Z,10.55
2019-01-11T22:21:37.980Z,10.20
2019-01-11T22:24:08.147Z,11.80
2019-01-11T22:31:59.620Z,10.15
2019-01-11T22:34:29.491Z,10.48
2019-01-11T22:39:34.988Z,10.28
2019-01-11T22:42:04.520Z,12.33
2019-01-11T22:44:34.372Z,11.63
2019-01-11T22:47:03.940Z,11.83
2019-01-11T22:49:33.517Z,12.55
2019-01-11T22:52:04.031Z,12.50
2019-01-11T22:54:33.709Z,11.70
2019-01-11T22:57:03.295Z,11.33
2019-01-11T22:59:32.997Z,12.58
2019-01-11T23:02:09.548Z,11.20
2019-01-11T23:04:39.563Z,11.65
2019-01-11T23:07:37.761Z,11.55
2019-01-11T23:10:31.589Z,11.88
2019-01-11T23:13:05.000Z,10.43
2019-01-11T23:15:37.081Z,12.20
2019-01-11T23:18:27.550Z,11.45
2019-01-11T23:21:09.017Z,10.80
2019-01-11T23:23:38.603Z,12.10
2019-01-11T23:26:08.180Z,11.30
2019-01-11T23:28:37.864Z,11.18
2019-01-11T23:31:07.802Z,12.15
2019-01-11T23:33:37.521Z,12.23
2019-01-11T23:36:07.151Z,11.68
2019-01-11T23:38:36.850Z,12.40
2019-01-11T23:41:06.621Z,11.55
2019-01-11T23:43:36.288Z,12.00
2019-01-11T23:46:06.027Z,12.47
2019-01-11T23:48:35.818Z,13.18
2019-01-11T23:51:05.844Z,13.00
2019-01-11T23:53:35.519Z,13.65
2019-01-11T23:56:05.160Z,12.95
2019-01-11T23:58:34.749Z,14.60
